sensor_id;sensor_type;location;lat;lon;timestamp;temperature;humidity
11840;DHT22;5979;50.800;4.904;2022-12-20T00:00:16;10.80;99.90
11840;DHT22;5979;50.800;4.904;2022-12-20T00:02:42;10.80;99.90
11840;DHT22;5979;50.800;4.904;2022-12-20T00:05:08;10.80;99.90
11840;DHT22;5979;50.800;4.904;2022-12-20T00:07:33;10.80;99.90
11840;DHT22;5979;50.800;4.904;2022-12-20T00:09:59;10.80;99.90
11840;DHT22;5979;50.800;4.904;2022-12-20T00:12:25;10.80;99.90
11840;DHT22;5979;50.800;4.904;2022-12-20T00:14:50;10.80;99.90
11840;DHT22;5979;50.800;4.904;2022-12-20T00:17:16;10.80;99.90
11840;DHT22;5979;50.800;4.904;2022-12-20T00:19:45;10.80;99.90
11840;DHT22;5979;50.800;4.904;2022-12-20T00:22:10;10.80;99.90
11840;DHT22;5979;50.800;4.904;2022-12-20T00:24:36;10.80;99.90
11840;DHT22;5979;50.800;4.904;2022-12-20T00:27:02;10.80;99.90
11840;DHT22;5979;50.800;4.904;2022-12-20T00:29:28;10.80;99.90
11840;DHT22;5979;50.800;4.904;2022-12-20T00:31:53;10.80;99.90
11840;DHT22;5979;50.800;4.904;2022-12-20T00:34:19;10.80;99.90
11840;DHT22;5979;50.800;4.904;2022-12-20T00:36:45;10.70;99.90
11840;DHT22;5979;50.800;4.904;2022-12-20T00:39:11;10.70;99.90
11840;DHT22;5979;50.800;4.904;2022-12-20T00:41:36;10.70;99.90
11840;DHT22;5979;50.800;4.904;2022-12-20T00:44:03;10.70;99.90
11840;DHT22;5979;50.800;4.904;2022-12-20T00:46:29;10.60;99.90
11840;DHT22;5979;50.800;4.904;2022-12-20T00:48:56;10.70;99.90
11840;DHT22;5979;50.800;4.904;2022-12-20T00:51:25;10.60;99.90
11840;DHT22;5979;50.800;4.904;2022-12-20T00:53:52;10.70;99.90
11840;DHT22;5979;50.800;4.904;2022-12-20T00:56:18;10.60;99.90
11840;DHT22;5979;50.800;4.904;2022-12-20T00:58:44;10.60;99.90
11840;DHT22;5979;50.800;4.904;2022-12-20T01:01:24;10.60;99.90
11840;DHT22;5979;50.800;4.904;2022-12-20T01:03:51;10.60;99.90
11840;DHT22;5979;50.800;4.904;2022-12-20T01:06:18;10.60;99.90
11840;DHT22;5979;50.800;4.904;2022-12-20T01:08:44;10.50;99.90
11840;DHT22;5979;50.800;4.904;2022-12-20T01:11:13;10.50;99.90
11840;DHT22;5979;50.800;4.904;2022-12-20T01:13:42;10.50;99.90
11840;DHT22;5979;50.800;4.904;2022-12-20T01:18:41;10.40;99.90
11840;DHT22;5979;50.800;4.904;2022-12-20T01:21:09;10.40;99.90
11840;DHT22;5979;50.800;4.904;2022-12-20T01:23:36;10.50;99.90
11840;DHT22;5979;50.800;4.904;2022-12-20T01:26:03;10.40;99.90
11840;DHT22;5979;50.800;4.904;2022-12-20T01:28:30;10.40;99.90
11840;DHT22;5979;50.800;4.904;2022-12-20T01:30:56;10.40;99.90
11840;DHT22;5979;50.800;4.904;2022-12-20T01:33:22;10.40;99.90
11840;DHT22;5979;50.800;4.904;2022-12-20T01:35:56;10.40;99.90
11840;DHT22;5979;50.800;4.904;2022-12-20T01:38:23;10.40;99.90
11840;DHT22;5979;50.800;4.904;2022-12-20T01:40:49;10.40;99.90
11840;DHT22;5979;50.800;4.904;2022-12-20T01:43:16;10.30;99.90
11840;DHT22;5979;50.800;4.904;2022-12-20T01:45:42;10.30;99.90
11840;DHT22;5979;50.800;4.904;2022-12-20T01:48:08;10.30;99.90
11840;DHT22;5979;50.800;4.904;2022-12-20T01:50:36;10.30;99.90
11840;DHT22;5979;50.800;4.904;2022-12-20T01:53:02;10.30;99.90
11840;DHT22;5979;50.800;4.904;2022-12-20T01:55:30;10.30;99.90
11840;DHT22;5979;50.800;4.904;2022-12-20T01:58:01;10.30;99.90
11840;DHT22;5979;50.800;4.904;2022-12-20T02:00:27;10.30;99.90
11840;DHT22;5979;50.800;4.904;2022-12-20T02:02:54;10.30;99.90
11840;DHT22;5979;50.800;4.904;2022-12-20T02:05:23;10.30;99.90
11840;DHT22;5979;50.800;4.904;2022-12-20T02:07:52;10.30;99.90
11840;DHT22;5979;50.800;4.904;2022-12-20T02:10:21;10.40;99.90
11840;DHT22;5979;50.800;4.904;2022-12-20T02:12:49;10.40;99.90
11840;DHT22;5979;50.800;4.904;2022-12-20T02:18:13;10.40;99.90
11840;DHT22;5979;50.800;4.904;2022-12-20T02:26:31;10.30;99.90
11840;DHT22;5979;50.800;4.904;2022-12-20T02:29:29;10.30;99.90
11840;DHT22;5979;50.800;4.904;2022-12-20T02:32:24;10.30;99.90
11840;DHT22;5979;50.800;4.904;2022-12-20T02:34:51;10.30;99.90
11840;DHT22;5979;50.800;4.904;2022-12-20T02:37:17;10.30;99.90
11840;DHT22;5979;50.800;4.904;2022-12-20T02:39:43;10.30;99.90
11840;DHT22;5979;50.800;4.904;2022-12-20T02:42:13;10.30;99.90
11840;DHT22;5979;50.800;4.904;2022-12-20T02:45:02;10.40;99.90
11840;DHT22;5979;50.800;4.904;2022-12-20T02:50:11;10.40;99.90
11840;DHT22;5979;50.800;4.904;2022-12-20T02:52:37;10.40;99.90
11840;DHT22;5979;50.800;4.904;2022-12-20T02:55:04;10.40;99.90
11840;DHT22;5979;50.800;4.904;2022-12-20T02:57:55;10.40;99.90
11840;DHT22;5979;50.800;4.904;2022-12-20T03:00:23;10.40;99.90
11840;DHT22;5979;50.800;4.904;2022-12-20T03:02:49;10.40;99.90
11840;DHT22;5979;50.800;4.904;2022-12-20T03:05:42;10.40;99.90
11840;DHT22;5979;50.800;4.904;2022-12-20T03:08:08;10.40;99.90
11840;DHT22;5979;50.800;4.904;2022-12-20T03:10:34;10.40;99.90
11840;DHT22;5979;50.800;4.904;2022-12-20T03:13:00;10.40;99.90
11840;DHT22;5979;50.800;4.904;2022-12-20T03:15:25;10.40;99.90
11840;DHT22;5979;50.800;4.904;2022-12-20T03:17:51;10.40;99.90
11840;DHT22;5979;50.800;4.904;2022-12-20T03:20:17;10.40;99.90
11840;DHT22;5979;50.800;4.904;2022-12-20T03:22:42;10.50;99.90
11840;DHT22;5979;50.800;4.904;2022-12-20T03:25:08;10.50;99.90
11840;DHT22;5979;50.800;4.904;2022-12-20T03:27:34;10.50;99.90
11840;DHT22;5979;50.800;4.904;2022-12-20T03:29:59;10.50;99.90
11840;DHT22;5979;50.800;4.904;2022-12-20T03:32:25;10.50;99.90
11840;DHT22;5979;50.800;4.904;2022-12-20T03:34:51;10.50;99.90
11840;DHT22;5979;50.800;4.904;2022-12-20T03:37:17;10.60;99.90
11840;DHT22;5979;50.800;4.904;2022-12-20T03:39:42;10.60;99.90
11840;DHT22;5979;50.800;4.904;2022-12-20T03:42:08;10.60;99.90
11840;DHT22;5979;50.800;4.904;2022-12-20T03:44:34;10.60;99.90
11840;DHT22;5979;50.800;4.904;2022-12-20T03:46:59;10.60;99.90
11840;DHT22;5979;50.800;4.904;2022-12-20T03:49:25;10.60;99.90
11840;DHT22;5979;50.800;4.904;2022-12-20T03:51:51;10.60;99.90
11840;DHT22;5979;50.800;4.904;2022-12-20T03:54:17;10.50;99.90
11840;DHT22;5979;50.800;4.904;2022-12-20T03:56:43;10.50;99.90
11840;DHT22;5979;50.800;4.904;2022-12-20T03:59:09;10.50;99.90
11840;DHT22;5979;50.800;4.904;2022-12-20T04:01:34;10.50;99.90
11840;DHT22;5979;50.800;4.904;2022-12-20T04:04:02;10.50;99.90
11840;DHT22;5979;50.800;4.904;2022-12-20T04:06:27;10.50;99.90
11840;DHT22;5979;50.800;4.904;2022-12-20T04:08:53;10.40;99.90
11840;DHT22;5979;50.800;4.904;2022-12-20T04:11:19;10.50;99.90
11840;DHT22;5979;50.800;4.904;2022-12-20T04:13:52;10.50;99.90
11840;DHT22;5979;50.800;4.904;2022-12-20T04:16:21;10.50;99.90
11840;DHT22;5979;50.800;4.904;2022-12-20T04:18:47;10.40;99.90
11840;DHT22;5979;50.800;4.904;2022-12-20T04:21:14;10.40;99.90
11840;DHT22;5979;50.800;4.904;2022-12-20T04:23:41;10.40;99.90
11840;DHT22;5979;50.800;4.904;2022-12-20T04:26:08;10.40;99.90
11840;DHT22;5979;50.800;4.904;2022-12-20T04:28:34;10.40;99.90
11840;DHT22;5979;50.800;4.904;2022-12-20T04:31:00;10.40;99.90
11840;DHT22;5979;50.800;4.904;2022-12-20T04:33:27;10.40;99.90
11840;DHT22;5979;50.800;4.904;2022-12-20T04:35:53;10.40;99.90
11840;DHT22;5979;50.800;4.904;2022-12-20T04:38:20;10.40;99.90
11840;DHT22;5979;50.800;4.904;2022-12-20T04:40:50;10.40;99.90
11840;DHT22;5979;50.800;4.904;2022-12-20T04:43:17;10.40;99.90
11840;DHT22;5979;50.800;4.904;2022-12-20T04:45:43;10.40;99.90
11840;DHT22;5979;50.800;4.904;2022-12-20T04:48:10;10.40;99.90
11840;DHT22;5979;50.800;4.904;2022-12-20T04:50:36;10.40;99.90
11840;DHT22;5979;50.800;4.904;2022-12-20T04:53:02;10.40;99.90
11840;DHT22;5979;50.800;4.904;2022-12-20T04:55:46;10.40;99.90
11840;DHT22;5979;50.800;4.904;2022-12-20T04:58:12;10.40;99.90
11840;DHT22;5979;50.800;4.904;2022-12-20T05:00:38;10.40;99.90
11840;DHT22;5979;50.800;4.904;2022-12-20T05:03:03;10.40;99.90
11840;DHT22;5979;50.800;4.904;2022-12-20T05:05:29;10.30;99.90
11840;DHT22;5979;50.800;4.904;2022-12-20T05:07:55;10.30;99.90
11840;DHT22;5979;50.800;4.904;2022-12-20T05:10:21;10.30;99.90
11840;DHT22;5979;50.800;4.904;2022-12-20T05:12:46;10.40;99.90
11840;DHT22;5979;50.800;4.904;2022-12-20T05:15:12;10.30;99.90
11840;DHT22;5979;50.800;4.904;2022-12-20T05:17:38;10.30;99.90
11840;DHT22;5979;50.800;4.904;2022-12-20T05:20:05;10.30;99.90
11840;DHT22;5979;50.800;4.904;2022-12-20T05:22:31;10.30;99.90
11840;DHT22;5979;50.800;4.904;2022-12-20T05:25:16;10.30;99.90
11840;DHT22;5979;50.800;4.904;2022-12-20T05:28:00;10.40;99.90
11840;DHT22;5979;50.800;4.904;2022-12-20T05:30:26;10.30;99.90
11840;DHT22;5979;50.800;4.904;2022-12-20T05:32:52;10.40;99.90
11840;DHT22;5979;50.800;4.904;2022-12-20T05:35:18;10.40;99.90
11840;DHT22;5979;50.800;4.904;2022-12-20T05:37:44;10.40;99.90
11840;DHT22;5979;50.800;4.904;2022-12-20T05:40:10;10.40;99.90
11840;DHT22;5979;50.800;4.904;2022-12-20T05:42:36;10.50;99.90
11840;DHT22;5979;50.800;4.904;2022-12-20T05:45:03;10.50;99.90
11840;DHT22;5979;50.800;4.904;2022-12-20T05:47:30;10.50;99.90
11840;DHT22;5979;50.800;4.904;2022-12-20T05:49:59;10.50;99.90
11840;DHT22;5979;50.800;4.904;2022-12-20T05:52:25;10.50;99.90
11840;DHT22;5979;50.800;4.904;2022-12-20T05:54:50;10.50;99.90
11840;DHT22;5979;50.800;4.904;2022-12-20T05:57:16;10.50;99.90
11840;DHT22;5979;50.800;4.904;2022-12-20T05:59:42;10.50;99.90
11840;DHT22;5979;50.800;4.904;2022-12-20T06:02:08;10.50;99.90
11840;DHT22;5979;50.800;4.904;2022-12-20T06:04:35;10.50;99.90
11840;DHT22;5979;50.800;4.904;2022-12-20T06:07:01;10.50;99.90
11840;DHT22;5979;50.800;4.904;2022-12-20T06:09:27;10.50;99.90
11840;DHT22;5979;50.800;4.904;2022-12-20T06:11:54;10.50;99.90
11840;DHT22;5979;50.800;4.904;2022-12-20T06:14:20;10.40;99.90
11840;DHT22;5979;50.800;4.904;2022-12-20T06:16:46;10.40;99.90
11840;DHT22;5979;50.800;4.904;2022-12-20T06:19:12;10.40;99.90
11840;DHT22;5979;50.800;4.904;2022-12-20T06:21:38;10.30;99.90
11840;DHT22;5979;50.800;4.904;2022-12-20T06:24:07;10.30;99.90
11840;DHT22;5979;50.800;4.904;2022-12-20T06:26:33;10.20;99.90
11840;DHT22;5979;50.800;4.904;2022-12-20T06:29:04;10.20;99.90
11840;DHT22;5979;50.800;4.904;2022-12-20T06:31:32;10.10;99.90
11840;DHT22;5979;50.800;4.904;2022-12-20T06:33:58;10.10;99.90
11840;DHT22;5979;50.800;4.904;2022-12-20T06:36:24;10.00;99.90
11840;DHT22;5979;50.800;4.904;2022-12-20T06:38:50;10.00;99.90
11840;DHT22;5979;50.800;4.904;2022-12-20T06:41:16;10.00;99.90
11840;DHT22;5979;50.800;4.904;2022-12-20T06:43:41;10.00;99.90
11840;DHT22;5979;50.800;4.904;2022-12-20T06:46:07;10.00;99.90
11840;DHT22;5979;50.800;4.904;2022-12-20T06:48:33;10.00;99.90
11840;DHT22;5979;50.800;4.904;2022-12-20T06:50:58;10.00;99.90
11840;DHT22;5979;50.800;4.904;2022-12-20T06:53:24;10.00;99.90
11840;DHT22;5979;50.800;4.904;2022-12-20T06:55:50;10.10;99.90
11840;DHT22;5979;50.800;4.904;2022-12-20T06:58:19;10.10;99.90
11840;DHT22;5979;50.800;4.904;2022-12-20T07:00:46;10.10;99.90
11840;DHT22;5979;50.800;4.904;2022-12-20T07:03:12;10.10;99.90
11840;DHT22;5979;50.800;4.904;2022-12-20T07:05:38;10.20;99.90
11840;DHT22;5979;50.800;4.904;2022-12-20T07:08:04;10.20;99.90
11840;DHT22;5979;50.800;4.904;2022-12-20T07:10:32;10.20;99.90
11840;DHT22;5979;50.800;4.904;2022-12-20T07:12:58;10.20;99.90
11840;DHT22;5979;50.800;4.904;2022-12-20T07:15:24;10.20;99.90
11840;DHT22;5979;50.800;4.904;2022-12-20T07:17:50;10.20;99.90
11840;DHT22;5979;50.800;4.904;2022-12-20T07:20:16;10.30;99.90
11840;DHT22;5979;50.800;4.904;2022-12-20T07:22:42;10.30;99.90
11840;DHT22;5979;50.800;4.904;2022-12-20T07:25:08;10.30;99.90
11840;DHT22;5979;50.800;4.904;2022-12-20T07:27:34;10.30;99.90
11840;DHT22;5979;50.800;4.904;2022-12-20T07:30:00;10.30;99.90
11840;DHT22;5979;50.800;4.904;2022-12-20T07:32:25;10.30;99.90
11840;DHT22;5979;50.800;4.904;2022-12-20T07:34:51;10.30;99.90
11840;DHT22;5979;50.800;4.904;2022-12-20T07:37:17;10.20;99.90
11840;DHT22;5979;50.800;4.904;2022-12-20T07:39:42;10.30;99.90
11840;DHT22;5979;50.800;4.904;2022-12-20T07:42:08;10.30;99.90
11840;DHT22;5979;50.800;4.904;2022-12-20T07:44:34;10.30;99.90
11840;DHT22;5979;50.800;4.904;2022-12-20T07:47:00;10.30;99.90
11840;DHT22;5979;50.800;4.904;2022-12-20T07:49:25;10.30;99.90
11840;DHT22;5979;50.800;4.904;2022-12-20T07:51:54;10.30;99.90
11840;DHT22;5979;50.800;4.904;2022-12-20T07:54:24;10.30;99.90
11840;DHT22;5979;50.800;4.904;2022-12-20T07:56:55;10.30;99.90
11840;DHT22;5979;50.800;4.904;2022-12-20T07:59:44;10.30;99.90
11840;DHT22;5979;50.800;4.904;2022-12-20T08:02:16;10.30;99.90
11840;DHT22;5979;50.800;4.904;2022-12-20T08:04:43;10.30;99.90
11840;DHT22;5979;50.800;4.904;2022-12-20T08:07:09;10.30;99.90
11840;DHT22;5979;50.800;4.904;2022-12-20T08:09:37;10.30;99.90
11840;DHT22;5979;50.800;4.904;2022-12-20T08:12:04;10.30;99.90
11840;DHT22;5979;50.800;4.904;2022-12-20T08:14:31;10.30;99.90
11840;DHT22;5979;50.800;4.904;2022-12-20T08:16:57;10.30;99.90
11840;DHT22;5979;50.800;4.904;2022-12-20T08:19:23;10.30;99.90
11840;DHT22;5979;50.800;4.904;2022-12-20T08:21:48;10.30;99.90
11840;DHT22;5979;50.800;4.904;2022-12-20T08:24:14;10.30;99.90
11840;DHT22;5979;50.800;4.904;2022-12-20T08:26:41;10.30;99.90
11840;DHT22;5979;50.800;4.904;2022-12-20T08:29:06;10.30;99.90
11840;DHT22;5979;50.800;4.904;2022-12-20T08:31:36;10.30;99.90
11840;DHT22;5979;50.800;4.904;2022-12-20T08:34:03;10.30;99.90
11840;DHT22;5979;50.800;4.904;2022-12-20T08:36:29;10.30;99.90
11840;DHT22;5979;50.800;4.904;2022-12-20T08:38:54;10.30;99.90
11840;DHT22;5979;50.800;4.904;2022-12-20T08:41:20;10.30;99.90
11840;DHT22;5979;50.800;4.904;2022-12-20T08:43:46;10.30;99.90
11840;DHT22;5979;50.800;4.904;2022-12-20T08:46:12;10.30;99.90
11840;DHT22;5979;50.800;4.904;2022-12-20T08:48:38;10.30;99.90
11840;DHT22;5979;50.800;4.904;2022-12-20T08:51:06;10.30;99.90
11840;DHT22;5979;50.800;4.904;2022-12-20T08:53:33;10.30;99.90
11840;DHT22;5979;50.800;4.904;2022-12-20T08:56:07;10.40;99.90
11840;DHT22;5979;50.800;4.904;2022-12-20T08:58:35;10.40;99.90
11840;DHT22;5979;50.800;4.904;2022-12-20T09:01:03;10.40;99.90
11840;DHT22;5979;50.800;4.904;2022-12-20T09:03:31;10.50;99.90
11840;DHT22;5979;50.800;4.904;2022-12-20T09:05:58;10.50;99.90
11840;DHT22;5979;50.800;4.904;2022-12-20T09:08:25;10.50;99.90
11840;DHT22;5979;50.800;4.904;2022-12-20T09:10:51;10.60;99.90
11840;DHT22;5979;50.800;4.904;2022-12-20T09:13:17;10.60;99.90
11840;DHT22;5979;50.800;4.904;2022-12-20T09:15:43;10.70;99.90
11840;DHT22;5979;50.800;4.904;2022-12-20T09:18:09;10.70;99.90
11840;DHT22;5979;50.800;4.904;2022-12-20T09:20:35;10.80;99.90
11840;DHT22;5979;50.800;4.904;2022-12-20T09:23:01;10.80;99.90
11840;DHT22;5979;50.800;4.904;2022-12-20T09:25:27;10.80;99.90
11840;DHT22;5979;50.800;4.904;2022-12-20T09:27:53;10.90;99.90
11840;DHT22;5979;50.800;4.904;2022-12-20T09:30:21;10.90;99.90
11840;DHT22;5979;50.800;4.904;2022-12-20T09:32:47;11.00;99.90
11840;DHT22;5979;50.800;4.904;2022-12-20T09:35:13;11.00;99.90
11840;DHT22;5979;50.800;4.904;2022-12-20T09:37:39;11.00;99.90
11840;DHT22;5979;50.800;4.904;2022-12-20T09:40:08;11.00;99.90
11840;DHT22;5979;50.800;4.904;2022-12-20T09:42:35;11.10;99.90
11840;DHT22;5979;50.800;4.904;2022-12-20T09:45:06;11.20;99.90
11840;DHT22;5979;50.800;4.904;2022-12-20T09:47:34;11.20;99.90
11840;DHT22;5979;50.800;4.904;2022-12-20T09:50:02;11.20;99.90
11840;DHT22;5979;50.800;4.904;2022-12-20T09:52:50;11.30;99.90
11840;DHT22;5979;50.800;4.904;2022-12-20T09:55:33;11.40;99.90
11840;DHT22;5979;50.800;4.904;2022-12-20T10:00:28;11.40;99.90
11840;DHT22;5979;50.800;4.904;2022-12-20T10:02:55;11.40;99.90
11840;DHT22;5979;50.800;4.904;2022-12-20T10:05:51;11.50;99.90
11840;DHT22;5979;50.800;4.904;2022-12-20T10:11:01;11.50;99.90
11840;DHT22;5979;50.800;4.904;2022-12-20T10:16:27;11.50;99.90
11840;DHT22;5979;50.800;4.904;2022-12-20T10:21:59;11.60;99.90
11840;DHT22;5979;50.800;4.904;2022-12-20T10:24:31;11.70;99.90
11840;DHT22;5979;50.800;4.904;2022-12-20T10:29:54;11.80;99.90
11840;DHT22;5979;50.800;4.904;2022-12-20T10:32:22;11.80;99.90
11840;DHT22;5979;50.800;4.904;2022-12-20T10:37:35;11.80;99.90
11840;DHT22;5979;50.800;4.904;2022-12-20T10:40:02;11.80;99.90
11840;DHT22;5979;50.800;4.904;2022-12-20T10:42:37;11.70;99.90
11840;DHT22;5979;50.800;4.904;2022-12-20T10:45:09;11.70;99.90
11840;DHT22;5979;50.800;4.904;2022-12-20T10:47:47;11.70;99.90
11840;DHT22;5979;50.800;4.904;2022-12-20T10:50:20;11.70;99.90
11840;DHT22;5979;50.800;4.904;2022-12-20T10:55:35;11.80;99.90
11840;DHT22;5979;50.800;4.904;2022-12-20T10:58:41;11.80;99.90
11840;DHT22;5979;50.800;4.904;2022-12-20T11:01:14;11.80;99.90
11840;DHT22;5979;50.800;4.904;2022-12-20T11:04:20;11.80;99.90
11840;DHT22;5979;50.800;4.904;2022-12-20T11:06:44;11.80;99.90
11840;DHT22;5979;50.800;4.904;2022-12-20T11:09:28;11.80;99.90
11840;DHT22;5979;50.800;4.904;2022-12-20T11:14:24;11.70;99.90
11840;DHT22;5979;50.800;4.904;2022-12-20T11:16:52;11.70;99.90
11840;DHT22;5979;50.800;4.904;2022-12-20T11:39:29;11.20;99.90
11840;DHT22;5979;50.800;4.904;2022-12-20T11:45:20;11.20;99.90
11840;DHT22;5979;50.800;4.904;2022-12-20T11:51:00;11.20;99.90
11840;DHT22;5979;50.800;4.904;2022-12-20T11:53:37;11.20;99.90
11840;DHT22;5979;50.800;4.904;2022-12-20T11:56:17;11.20;99.90
11840;DHT22;5979;50.800;4.904;2022-12-20T12:07:30;11.20;99.90
11840;DHT22;5979;50.800;4.904;2022-12-20T12:12:39;11.10;99.90
11840;DHT22;5979;50.800;4.904;2022-12-20T12:15:33;11.10;99.90
11840;DHT22;5979;50.800;4.904;2022-12-20T12:18:17;11.00;99.90
11840;DHT22;5979;50.800;4.904;2022-12-20T12:23:26;11.00;99.90
11840;DHT22;5979;50.800;4.904;2022-12-20T12:25:54;10.90;99.90
11840;DHT22;5979;50.800;4.904;2022-12-20T12:28:21;10.90;99.90
11840;DHT22;5979;50.800;4.904;2022-12-20T12:30:53;10.90;99.90
11840;DHT22;5979;50.800;4.904;2022-12-20T12:33:31;10.80;99.90
11840;DHT22;5979;50.800;4.904;2022-12-20T12:36:10;10.80;99.90
11840;DHT22;5979;50.800;4.904;2022-12-20T12:47:01;10.70;99.90
11840;DHT22;5979;50.800;4.904;2022-12-20T12:49:29;10.70;99.90
11840;DHT22;5979;50.800;4.904;2022-12-20T12:51:58;10.60;99.90
11840;DHT22;5979;50.800;4.904;2022-12-20T12:54:33;10.70;99.90
11840;DHT22;5979;50.800;4.904;2022-12-20T12:57:02;10.70;99.90
11840;DHT22;5979;50.800;4.904;2022-12-20T13:10:53;10.60;99.90
11840;DHT22;5979;50.800;4.904;2022-12-20T13:17:59;10.60;99.90
11840;DHT22;5979;50.800;4.904;2022-12-20T13:25:39;10.50;99.90
11840;DHT22;5979;50.800;4.904;2022-12-20T13:33:44;10.50;99.90
11840;DHT22;5979;50.800;4.904;2022-12-20T13:43:51;10.50;99.90
11840;DHT22;5979;50.800;4.904;2022-12-20T13:46:29;10.50;99.90
11840;DHT22;5979;50.800;4.904;2022-12-20T13:49:01;10.50;99.90
11840;DHT22;5979;50.800;4.904;2022-12-20T13:51:29;10.50;99.90
11840;DHT22;5979;50.800;4.904;2022-12-20T13:53:55;10.50;99.90
11840;DHT22;5979;50.800;4.904;2022-12-20T13:59:23;10.50;99.90
11840;DHT22;5979;50.800;4.904;2022-12-20T14:01:53;10.50;99.90
11840;DHT22;5979;50.800;4.904;2022-12-20T14:04:20;10.50;99.90
11840;DHT22;5979;50.800;4.904;2022-12-20T14:06:56;10.50;99.90
11840;DHT22;5979;50.800;4.904;2022-12-20T14:09:32;10.50;99.90
11840;DHT22;5979;50.800;4.904;2022-12-20T14:12:15;10.50;99.90
11840;DHT22;5979;50.800;4.904;2022-12-20T14:14:46;10.50;99.90
11840;DHT22;5979;50.800;4.904;2022-12-20T14:17:27;10.50;99.90
11840;DHT22;5979;50.800;4.904;2022-12-20T14:20:12;10.60;99.90
11840;DHT22;5979;50.800;4.904;2022-12-20T14:25:41;10.60;99.90
11840;DHT22;5979;50.800;4.904;2022-12-20T14:28:38;10.60;99.90
11840;DHT22;5979;50.800;4.904;2022-12-20T14:31:04;10.70;99.90
11840;DHT22;5979;50.800;4.904;2022-12-20T14:33:40;10.60;99.90
11840;DHT22;5979;50.800;4.904;2022-12-20T14:36:19;10.60;99.90
11840;DHT22;5979;50.800;4.904;2022-12-20T14:38:47;10.70;99.90
11840;DHT22;5979;50.800;4.904;2022-12-20T14:41:38;10.60;99.90
11840;DHT22;5979;50.800;4.904;2022-12-20T14:44:31;10.70;99.90
11840;DHT22;5979;50.800;4.904;2022-12-20T14:47:21;10.70;99.90
11840;DHT22;5979;50.800;4.904;2022-12-20T14:49:54;10.70;99.90
11840;DHT22;5979;50.800;4.904;2022-12-20T14:55:06;10.70;99.90
11840;DHT22;5979;50.800;4.904;2022-12-20T14:57:38;10.70;99.90
11840;DHT22;5979;50.800;4.904;2022-12-20T15:03:29;10.60;99.90
11840;DHT22;5979;50.800;4.904;2022-12-20T15:05:56;10.60;99.90
11840;DHT22;5979;50.800;4.904;2022-12-20T15:08:30;10.50;99.90
11840;DHT22;5979;50.800;4.904;2022-12-20T15:16:24;10.50;99.90
11840;DHT22;5979;50.800;4.904;2022-12-20T15:18:53;10.50;99.90
11840;DHT22;5979;50.800;4.904;2022-12-20T15:21:36;10.50;99.90
11840;DHT22;5979;50.800;4.904;2022-12-20T15:24:10;10.40;99.90
11840;DHT22;5979;50.800;4.904;2022-12-20T15:26:36;10.40;99.90
11840;DHT22;5979;50.800;4.904;2022-12-20T15:29:03;10.40;99.90
11840;DHT22;5979;50.800;4.904;2022-12-20T15:31:29;10.40;99.90
11840;DHT22;5979;50.800;4.904;2022-12-20T15:33:55;10.40;99.90
11840;DHT22;5979;50.800;4.904;2022-12-20T15:36:26;10.40;99.90
11840;DHT22;5979;50.800;4.904;2022-12-20T15:38:53;10.30;99.90
11840;DHT22;5979;50.800;4.904;2022-12-20T15:41:32;10.30;99.90
11840;DHT22;5979;50.800;4.904;2022-12-20T15:44:13;10.30;99.90
11840;DHT22;5979;50.800;4.904;2022-12-20T15:46:39;10.30;99.90
11840;DHT22;5979;50.800;4.904;2022-12-20T15:49:08;10.30;99.90
11840;DHT22;5979;50.800;4.904;2022-12-20T15:51:35;10.30;99.90
11840;DHT22;5979;50.800;4.904;2022-12-20T15:54:04;10.30;99.90
11840;DHT22;5979;50.800;4.904;2022-12-20T15:56:31;10.30;99.90
11840;DHT22;5979;50.800;4.904;2022-12-20T15:58:56;10.30;99.90
11840;DHT22;5979;50.800;4.904;2022-12-20T16:01:25;10.30;99.90
11840;DHT22;5979;50.800;4.904;2022-12-20T16:03:51;10.30;99.90
11840;DHT22;5979;50.800;4.904;2022-12-20T16:06:17;10.30;99.90
11840;DHT22;5979;50.800;4.904;2022-12-20T16:08:43;10.40;99.90
11840;DHT22;5979;50.800;4.904;2022-12-20T16:11:25;10.30;99.90
11840;DHT22;5979;50.800;4.904;2022-12-20T16:13:53;10.40;99.90
11840;DHT22;5979;50.800;4.904;2022-12-20T16:16:21;10.40;99.90
11840;DHT22;5979;50.800;4.904;2022-12-20T16:18:47;10.30;99.90
11840;DHT22;5979;50.800;4.904;2022-12-20T16:21:18;10.30;99.90
11840;DHT22;5979;50.800;4.904;2022-12-20T16:23:45;10.30;99.90
11840;DHT22;5979;50.800;4.904;2022-12-20T16:26:15;10.30;99.90
11840;DHT22;5979;50.800;4.904;2022-12-20T16:28:41;10.30;99.90
11840;DHT22;5979;50.800;4.904;2022-12-20T16:33:42;10.30;99.90
11840;DHT22;5979;50.800;4.904;2022-12-20T16:36:10;10.30;99.90
11840;DHT22;5979;50.800;4.904;2022-12-20T16:38:36;10.30;99.90
11840;DHT22;5979;50.800;4.904;2022-12-20T16:41:15;10.20;99.90
11840;DHT22;5979;50.800;4.904;2022-12-20T16:43:42;10.20;99.90
11840;DHT22;5979;50.800;4.904;2022-12-20T16:46:13;10.20;99.90
11840;DHT22;5979;50.800;4.904;2022-12-20T16:48:39;10.20;99.90
11840;DHT22;5979;50.800;4.904;2022-12-20T16:51:33;10.20;99.90
11840;DHT22;5979;50.800;4.904;2022-12-20T16:54:19;10.20;99.90
11840;DHT22;5979;50.800;4.904;2022-12-20T16:56:47;10.30;99.90
11840;DHT22;5979;50.800;4.904;2022-12-20T16:59:13;10.20;99.90
11840;DHT22;5979;50.800;4.904;2022-12-20T17:01:41;10.20;99.90
11840;DHT22;5979;50.800;4.904;2022-12-20T17:04:13;10.20;99.90
11840;DHT22;5979;50.800;4.904;2022-12-20T17:06:39;10.20;99.90
11840;DHT22;5979;50.800;4.904;2022-12-20T17:09:05;10.20;99.90
11840;DHT22;5979;50.800;4.904;2022-12-20T17:11:31;10.20;99.90
11840;DHT22;5979;50.800;4.904;2022-12-20T17:13:58;10.20;99.90
11840;DHT22;5979;50.800;4.904;2022-12-20T17:16:24;10.20;99.90
11840;DHT22;5979;50.800;4.904;2022-12-20T17:18:52;10.20;99.90
11840;DHT22;5979;50.800;4.904;2022-12-20T17:23:46;10.20;99.90
11840;DHT22;5979;50.800;4.904;2022-12-20T17:26:14;10.20;99.90
11840;DHT22;5979;50.800;4.904;2022-12-20T17:28:40;10.20;99.90
11840;DHT22;5979;50.800;4.904;2022-12-20T17:31:22;10.20;99.90
11840;DHT22;5979;50.800;4.904;2022-12-20T17:33:48;10.20;99.90
11840;DHT22;5979;50.800;4.904;2022-12-20T17:36:14;10.20;99.90
11840;DHT22;5979;50.800;4.904;2022-12-20T17:38:40;10.20;99.90
11840;DHT22;5979;50.800;4.904;2022-12-20T17:41:26;10.20;99.90
11840;DHT22;5979;50.800;4.904;2022-12-20T17:43:53;10.20;99.90
11840;DHT22;5979;50.800;4.904;2022-12-20T17:46:19;10.10;99.90
11840;DHT22;5979;50.800;4.904;2022-12-20T17:48:46;10.20;99.90
11840;DHT22;5979;50.800;4.904;2022-12-20T17:51:17;10.10;99.90
11840;DHT22;5979;50.800;4.904;2022-12-20T17:53:51;10.10;99.90
11840;DHT22;5979;50.800;4.904;2022-12-20T17:56:29;10.10;99.90
11840;DHT22;5979;50.800;4.904;2022-12-20T17:58:55;10.10;99.90
11840;DHT22;5979;50.800;4.904;2022-12-20T18:01:22;10.10;99.90
11840;DHT22;5979;50.800;4.904;2022-12-20T18:03:48;10.10;99.90
11840;DHT22;5979;50.800;4.904;2022-12-20T18:06:15;10.10;99.90
11840;DHT22;5979;50.800;4.904;2022-12-20T18:08:41;10.10;99.90
11840;DHT22;5979;50.800;4.904;2022-12-20T18:11:08;10.10;99.90
11840;DHT22;5979;50.800;4.904;2022-12-20T18:13:34;10.10;99.90
11840;DHT22;5979;50.800;4.904;2022-12-20T18:16:05;10.10;99.90
11840;DHT22;5979;50.800;4.904;2022-12-20T18:18:31;10.10;99.90